sensor_id;sensor_type;location;lat;lon;timestamp;P1;durP1;ratioP1;P2;durP2;ratioP2
50309;SDS011;36207;51.850;21.698;2022-09-20T00:03:44;15.80;;;12.30;;
50309;SDS011;36207;51.850;21.698;2022-09-20T00:06:14;15.40;;;12.40;;
50309;SDS011;36207;51.850;21.698;2022-09-20T00:08:42;18.90;;;12.70;;
50309;SDS011;36207;51.850;21.698;2022-09-20T00:11:10;16.00;;;12.20;;
50309;SDS011;36207;51.850;21.698;2022-09-20T00:13:43;17.50;;;12.80;;
50309;SDS011;36207;51.850;21.698;2022-09-20T00:16:12;16.50;;;13.10;;
50309;SDS011;36207;51.850;21.698;2022-09-20T00:18:42;17.80;;;13.40;;
50309;SDS011;36207;51.850;21.698;2022-09-20T00:21:15;16.00;;;12.50;;
50309;SDS011;36207;51.850;21.698;2022-09-20T00:23:43;15.30;;;11.80;;
50309;SDS011;36207;51.850;21.698;2022-09-20T00:26:09;16.00;;;12.60;;
50309;SDS011;36207;51.850;21.698;2022-09-20T00:28:35;17.80;;;13.60;;
50309;SDS011;36207;51.850;21.698;2022-09-20T00:31:01;15.90;;;12.60;;
50309;SDS011;36207;51.850;21.698;2022-09-20T00:33:28;18.10;;;12.20;;
50309;SDS011;36207;51.850;21.698;2022-09-20T00:36:14;18.00;;;12.50;;
50309;SDS011;36207;51.850;21.698;2022-09-20T00:38:41;15.80;;;12.60;;
50309;SDS011;36207;51.850;21.698;2022-09-20T00:41:07;15.90;;;12.70;;
50309;SDS011;36207;51.850;21.698;2022-09-20T00:43:40;15.90;;;13.00;;
50309;SDS011;36207;51.850;21.698;2022-09-20T00:46:18;14.80;;;11.90;;
50309;SDS011;36207;51.850;21.698;2022-09-20T00:48:45;15.60;;;12.10;;
50309;SDS011;36207;51.850;21.698;2022-09-20T00:51:14;15.20;;;12.30;;
50309;SDS011;36207;51.850;21.698;2022-09-20T00:53:46;17.20;;;13.40;;
50309;SDS011;36207;51.850;21.698;2022-09-20T00:56:19;18.90;;;13.90;;
50309;SDS011;36207;51.850;21.698;2022-09-20T00:58:50;17.20;;;12.90;;
50309;SDS011;36207;51.850;21.698;2022-09-20T01:01:42;17.00;;;13.10;;
50309;SDS011;36207;51.850;21.698;2022-09-20T01:04:11;19.00;;;14.10;;
50309;SDS011;36207;51.850;21.698;2022-09-20T01:06:41;18.90;;;14.40;;
50309;SDS011;36207;51.850;21.698;2022-09-20T01:09:09;19.90;;;14.20;;
50309;SDS011;36207;51.850;21.698;2022-09-20T01:11:35;16.70;;;13.20;;
50309;SDS011;36207;51.850;21.698;2022-09-20T01:14:03;16.70;;;13.40;;
50309;SDS011;36207;51.850;21.698;2022-09-20T01:16:29;18.70;;;14.50;;
50309;SDS011;36207;51.850;21.698;2022-09-20T01:18:57;20.00;;;14.40;;
50309;SDS011;36207;51.850;21.698;2022-09-20T01:21:27;16.80;;;13.90;;
50309;SDS011;36207;51.850;21.698;2022-09-20T01:24:10;18.70;;;13.50;;
50309;SDS011;36207;51.850;21.698;2022-09-20T01:32:13;19.30;;;14.40;;
50309;SDS011;36207;51.850;21.698;2022-09-20T01:34:48;19.20;;;14.60;;
50309;SDS011;36207;51.850;21.698;2022-09-20T01:37:26;19.40;;;14.90;;
50309;SDS011;36207;51.850;21.698;2022-09-20T01:43:34;20.00;;;15.50;;
50309;SDS011;36207;51.850;21.698;2022-09-20T01:45:46;21.00;;;15.90;;
50309;SDS011;36207;51.850;21.698;2022-09-20T01:54:10;19.80;;;15.10;;
50309;SDS011;36207;51.850;21.698;2022-09-20T02:02:06;23.00;;;17.00;;
50309;SDS011;36207;51.850;21.698;2022-09-20T02:04:54;22.00;;;15.60;;
50309;SDS011;36207;51.850;21.698;2022-09-20T02:07:40;20.70;;;15.10;;
50309;SDS011;36207;51.850;21.698;2022-09-20T02:13:05;20.00;;;15.40;;
50309;SDS011;36207;51.850;21.698;2022-09-20T02:21:37;21.90;;;16.20;;
50309;SDS011;36207;51.850;21.698;2022-09-20T02:24:21;21.50;;;15.50;;
50309;SDS011;36207;51.850;21.698;2022-09-20T02:29:57;22.60;;;15.60;;
50309;SDS011;36207;51.850;21.698;2022-09-20T02:32:55;18.90;;;14.60;;
50309;SDS011;36207;51.850;21.698;2022-09-20T02:40:49;21.00;;;15.50;;
50309;SDS011;36207;51.850;21.698;2022-09-20T02:46:40;22.80;;;14.10;;
50309;SDS011;36207;51.850;21.698;2022-09-20T02:52:19;19.10;;;13.80;;
50309;SDS011;36207;51.850;21.698;2022-09-20T02:54:56;18.00;;;14.50;;
50309;SDS011;36207;51.850;21.698;2022-09-20T02:57:52;18.00;;;13.80;;
50309;SDS011;36207;51.850;21.698;2022-09-20T03:00:31;17.40;;;13.40;;
50309;SDS011;36207;51.850;21.698;2022-09-20T03:09:05;23.90;;;13.10;;
50309;SDS011;36207;51.850;21.698;2022-09-20T03:14:25;19.20;;;12.70;;
50309;SDS011;36207;51.850;21.698;2022-09-20T03:17:04;19.10;;;13.50;;
50309;SDS011;36207;51.850;21.698;2022-09-20T03:25:26;17.90;;;13.90;;
50309;SDS011;36207;51.850;21.698;2022-09-20T03:28:07;19.00;;;13.30;;
50309;SDS011;36207;51.850;21.698;2022-09-20T03:36:34;19.30;;;13.70;;
50309;SDS011;36207;51.850;21.698;2022-09-20T03:42:10;18.00;;;13.50;;
50309;SDS011;36207;51.850;21.698;2022-09-20T03:47:42;17.40;;;13.80;;
50309;SDS011;36207;51.850;21.698;2022-09-20T04:04:11;20.00;;;13.50;;
50309;SDS011;36207;51.850;21.698;2022-09-20T04:06:45;17.00;;;12.90;;
50309;SDS011;36207;51.850;21.698;2022-09-20T04:12:13;18.30;;;14.30;;
50309;SDS011;36207;51.850;21.698;2022-09-20T04:25:56;20.20;;;14.30;;
50309;SDS011;36207;51.850;21.698;2022-09-20T04:28:27;19.30;;;13.90;;
50309;SDS011;36207;51.850;21.698;2022-09-20T04:31:37;16.90;;;13.20;;
50309;SDS011;36207;51.850;21.698;2022-09-20T04:34:12;20.40;;;14.10;;
50309;SDS011;36207;51.850;21.698;2022-09-20T04:39:32;17.80;;;13.90;;
50309;SDS011;36207;51.850;21.698;2022-09-20T04:47:54;19.90;;;14.20;;
50309;SDS011;36207;51.850;21.698;2022-09-20T04:56:19;20.40;;;14.20;;
50309;SDS011;36207;51.850;21.698;2022-09-20T05:10:34;20.60;;;14.50;;
50309;SDS011;36207;51.850;21.698;2022-09-20T05:16:01;22.70;;;15.20;;
50309;SDS011;36207;51.850;21.698;2022-09-20T05:21:27;21.90;;;14.90;;
50309;SDS011;36207;51.850;21.698;2022-09-20T05:24:22;21.60;;;15.00;;
50309;SDS011;36207;51.850;21.698;2022-09-20T05:26:55;22.10;;;15.30;;
50309;SDS011;36207;51.850;21.698;2022-09-20T05:35:23;22.10;;;15.90;;
50309;SDS011;36207;51.850;21.698;2022-09-20T05:37:59;21.60;;;15.10;;
50309;SDS011;36207;51.850;21.698;2022-09-20T05:40:45;22.20;;;15.90;;
50309;SDS011;36207;51.850;21.698;2022-09-20T05:44:31;20.20;;;14.80;;
50309;SDS011;36207;51.850;21.698;2022-09-20T05:46:57;19.30;;;14.80;;
50309;SDS011;36207;51.850;21.698;2022-09-20T05:49:50;21.00;;;16.00;;
50309;SDS011;36207;51.850;21.698;2022-09-20T05:52:49;19.30;;;15.30;;
50309;SDS011;36207;51.850;21.698;2022-09-20T06:01:45;21.60;;;16.00;;
50309;SDS011;36207;51.850;21.698;2022-09-20T06:04:45;19.50;;;14.90;;
50309;SDS011;36207;51.850;21.698;2022-09-20T06:10:47;20.70;;;15.80;;
50309;SDS011;36207;51.850;21.698;2022-09-20T06:13:35;24.20;;;17.00;;
50309;SDS011;36207;51.850;21.698;2022-09-20T06:16:31;23.40;;;17.10;;
50309;SDS011;36207;51.850;21.698;2022-09-20T06:22:38;23.10;;;15.40;;
50309;SDS011;36207;51.850;21.698;2022-09-20T06:28:18;23.00;;;16.60;;
50309;SDS011;36207;51.850;21.698;2022-09-20T06:30:48;23.00;;;16.80;;
50309;SDS011;36207;51.850;21.698;2022-09-20T06:33:17;20.60;;;15.40;;
50309;SDS011;36207;51.850;21.698;2022-09-20T06:36:16;19.50;;;15.60;;
50309;SDS011;36207;51.850;21.698;2022-09-20T06:42:07;21.50;;;15.30;;
50309;SDS011;36207;51.850;21.698;2022-09-20T06:44:35;19.90;;;15.60;;
50309;SDS011;36207;51.850;21.698;2022-09-20T06:47:12;19.80;;;14.50;;
50309;SDS011;36207;51.850;21.698;2022-09-20T06:49:45;18.60;;;14.50;;
50309;SDS011;36207;51.850;21.698;2022-09-20T06:52:20;19.50;;;14.60;;
50309;SDS011;36207;51.850;21.698;2022-09-20T06:54:54;19.80;;;14.70;;
50309;SDS011;36207;51.850;21.698;2022-09-20T06:57:36;21.00;;;14.90;;
50309;SDS011;36207;51.850;21.698;2022-09-20T07:00:12;21.50;;;14.50;;
50309;SDS011;36207;51.850;21.698;2022-09-20T07:02:46;17.10;;;13.50;;
50309;SDS011;36207;51.850;21.698;2022-09-20T07:05:20;19.20;;;14.40;;
50309;SDS011;36207;51.850;21.698;2022-09-20T07:07:56;21.00;;;14.70;;
50309;SDS011;36207;51.850;21.698;2022-09-20T07:10:30;18.10;;;13.50;;
50309;SDS011;36207;51.850;21.698;2022-09-20T07:13:04;19.30;;;13.20;;
50309;SDS011;36207;51.850;21.698;2022-09-20T07:15:38;18.10;;;13.90;;
50309;SDS011;36207;51.850;21.698;2022-09-20T07:18:06;18.40;;;14.30;;
50309;SDS011;36207;51.850;21.698;2022-09-20T07:20:36;19.50;;;14.80;;
50309;SDS011;36207;51.850;21.698;2022-09-20T07:23:09;17.50;;;14.30;;
50309;SDS011;36207;51.850;21.698;2022-09-20T07:25:44;17.80;;;13.00;;
50309;SDS011;36207;51.850;21.698;2022-09-20T07:28:10;17.90;;;13.60;;
50309;SDS011;36207;51.850;21.698;2022-09-20T07:30:36;16.60;;;13.30;;
50309;SDS011;36207;51.850;21.698;2022-09-20T07:33:03;17.60;;;14.20;;
50309;SDS011;36207;51.850;21.698;2022-09-20T07:35:29;18.20;;;13.60;;
50309;SDS011;36207;51.850;21.698;2022-09-20T07:37:56;19.20;;;13.30;;
50309;SDS011;36207;51.850;21.698;2022-09-20T07:40:23;18.60;;;13.50;;
50309;SDS011;36207;51.850;21.698;2022-09-20T07:42:51;17.30;;;13.70;;
50309;SDS011;36207;51.850;21.698;2022-09-20T07:45:17;16.80;;;13.50;;
50309;SDS011;36207;51.850;21.698;2022-09-20T07:47:43;16.50;;;13.10;;
50309;SDS011;36207;51.850;21.698;2022-09-20T07:50:11;17.30;;;12.60;;
50309;SDS011;36207;51.850;21.698;2022-09-20T07:52:37;14.30;;;11.40;;
50309;SDS011;36207;51.850;21.698;2022-09-20T07:55:06;16.20;;;11.90;;
50309;SDS011;36207;51.850;21.698;2022-09-20T07:57:33;15.90;;;12.70;;
50309;SDS011;36207;51.850;21.698;2022-09-20T08:00:03;14.50;;;11.60;;
50309;SDS011;36207;51.850;21.698;2022-09-20T08:02:31;17.00;;;12.10;;
50309;SDS011;36207;51.850;21.698;2022-09-20T08:04:57;14.60;;;10.40;;
50309;SDS011;36207;51.850;21.698;2022-09-20T08:07:23;14.10;;;11.10;;
50309;SDS011;36207;51.850;21.698;2022-09-20T08:09:50;17.30;;;11.90;;
50309;SDS011;36207;51.850;21.698;2022-09-20T08:12:16;14.20;;;11.70;;
50309;SDS011;36207;51.850;21.698;2022-09-20T08:14:44;14.80;;;11.60;;
50309;SDS011;36207;51.850;21.698;2022-09-20T08:17:10;15.20;;;12.00;;
50309;SDS011;36207;51.850;21.698;2022-09-20T08:19:37;15.30;;;11.60;;
50309;SDS011;36207;51.850;21.698;2022-09-20T08:22:04;14.10;;;10.60;;
50309;SDS011;36207;51.850;21.698;2022-09-20T08:24:32;13.30;;;10.70;;
50309;SDS011;36207;51.850;21.698;2022-09-20T08:26:58;14.10;;;10.70;;
50309;SDS011;36207;51.850;21.698;2022-09-20T08:29:24;13.80;;;10.90;;
50309;SDS011;36207;51.850;21.698;2022-09-20T08:31:50;14.50;;;11.10;;
50309;SDS011;36207;51.850;21.698;2022-09-20T08:34:17;13.20;;;9.60;;
50309;SDS011;36207;51.850;21.698;2022-09-20T08:36:44;13.10;;;9.90;;
50309;SDS011;36207;51.850;21.698;2022-09-20T08:39:16;11.50;;;9.40;;
50309;SDS011;36207;51.850;21.698;2022-09-20T08:44:34;14.00;;;10.00;;
50309;SDS011;36207;51.850;21.698;2022-09-20T08:47:24;12.50;;;8.90;;
50309;SDS011;36207;51.850;21.698;2022-09-20T08:49:52;12.70;;;10.30;;
50309;SDS011;36207;51.850;21.698;2022-09-20T08:52:24;14.00;;;9.90;;
50309;SDS011;36207;51.850;21.698;2022-09-20T08:54:55;13.40;;;9.90;;
50309;SDS011;36207;51.850;21.698;2022-09-20T08:57:25;13.30;;;8.90;;
50309;SDS011;36207;51.850;21.698;2022-09-20T08:59:56;13.80;;;8.70;;
50309;SDS011;36207;51.850;21.698;2022-09-20T09:02:25;10.40;;;9.20;;
50309;SDS011;36207;51.850;21.698;2022-09-20T09:04:56;11.00;;;7.80;;
50309;SDS011;36207;51.850;21.698;2022-09-20T09:07:23;12.40;;;8.40;;
50309;SDS011;36207;51.850;21.698;2022-09-20T09:09:51;11.60;;;8.60;;
50309;SDS011;36207;51.850;21.698;2022-09-20T09:12:30;11.80;;;9.10;;
50309;SDS011;36207;51.850;21.698;2022-09-20T09:15:04;11.60;;;8.30;;
50309;SDS011;36207;51.850;21.698;2022-09-20T09:18:01;10.40;;;8.40;;
50309;SDS011;36207;51.850;21.698;2022-09-20T09:20:27;9.60;;;7.20;;
50309;SDS011;36207;51.850;21.698;2022-09-20T09:22:59;10.00;;;8.20;;
50309;SDS011;36207;51.850;21.698;2022-09-20T09:25:28;9.80;;;7.90;;
50309;SDS011;36207;51.850;21.698;2022-09-20T09:30:34;10.70;;;7.80;;
50309;SDS011;36207;51.850;21.698;2022-09-20T09:33:20;10.00;;;7.50;;
50309;SDS011;36207;51.850;21.698;2022-09-20T09:35:55;9.40;;;7.60;;
50309;SDS011;36207;51.850;21.698;2022-09-20T09:38:26;9.70;;;7.10;;
50309;SDS011;36207;51.850;21.698;2022-09-20T09:41:01;9.30;;;6.70;;
50309;SDS011;36207;51.850;21.698;2022-09-20T09:43:31;8.60;;;6.60;;
50309;SDS011;36207;51.850;21.698;2022-09-20T09:51:38;8.60;;;6.40;;
50309;SDS011;36207;51.850;21.698;2022-09-20T09:54:11;10.00;;;6.20;;
50309;SDS011;36207;51.850;21.698;2022-09-20T09:59:29;8.60;;;6.20;;
50309;SDS011;36207;51.850;21.698;2022-09-20T10:08:27;11.90;;;6.80;;
50309;SDS011;36207;51.850;21.698;2022-09-20T10:19:22;8.40;;;6.40;;
50309;SDS011;36207;51.850;21.698;2022-09-20T10:21:59;9.10;;;6.20;;
50309;SDS011;36207;51.850;21.698;2022-09-20T10:30:38;8.70;;;6.40;;
50309;SDS011;36207;51.850;21.698;2022-09-20T10:33:17;8.60;;;6.00;;
50309;SDS011;36207;51.850;21.698;2022-09-20T10:36:34;7.80;;;5.90;;
50309;SDS011;36207;51.850;21.698;2022-09-20T10:39:16;8.60;;;6.10;;
50309;SDS011;36207;51.850;21.698;2022-09-20T10:47:47;9.30;;;6.60;;
50309;SDS011;36207;51.850;21.698;2022-09-20T11:09:26;7.50;;;5.90;;
50309;SDS011;36207;51.850;21.698;2022-09-20T11:12:05;7.10;;;5.80;;
50309;SDS011;36207;51.850;21.698;2022-09-20T11:14:44;7.00;;;5.70;;
50309;SDS011;36207;51.850;21.698;2022-09-20T11:17:21;7.00;;;5.60;;
50309;SDS011;36207;51.850;21.698;2022-09-20T11:20:09;6.90;;;5.60;;
50309;SDS011;36207;51.850;21.698;2022-09-20T11:22:45;8.50;;;6.50;;
50309;SDS011;36207;51.850;21.698;2022-09-20T11:30:15;7.40;;;5.40;;
50309;SDS011;36207;51.850;21.698;2022-09-20T11:35:39;8.00;;;5.40;;
50309;SDS011;36207;51.850;21.698;2022-09-20T11:40:51;9.30;;;6.90;;
50309;SDS011;36207;51.850;21.698;2022-09-20T11:43:22;8.80;;;5.70;;
50309;SDS011;36207;51.850;21.698;2022-09-20T11:45:57;8.70;;;6.00;;
50309;SDS011;36207;51.850;21.698;2022-09-20T11:48:38;7.50;;;5.70;;
50309;SDS011;36207;51.850;21.698;2022-09-20T11:56:55;7.20;;;4.90;;
50309;SDS011;36207;51.850;21.698;2022-09-20T11:59:36;8.90;;;5.40;;
50309;SDS011;36207;51.850;21.698;2022-09-20T12:02:15;6.30;;;4.80;;
50309;SDS011;36207;51.850;21.698;2022-09-20T12:04:47;7.30;;;5.00;;
50309;SDS011;36207;51.850;21.698;2022-09-20T12:10:05;8.60;;;5.80;;
50309;SDS011;36207;51.850;21.698;2022-09-20T12:12:56;6.90;;;5.30;;
50309;SDS011;36207;51.850;21.698;2022-09-20T12:15:27;8.40;;;5.70;;
50309;SDS011;36207;51.850;21.698;2022-09-20T12:18:28;8.10;;;5.50;;
50309;SDS011;36207;51.850;21.698;2022-09-20T12:36:32;7.00;;;5.60;;
50309;SDS011;36207;51.850;21.698;2022-09-20T12:47:03;6.00;;;5.00;;
50309;SDS011;36207;51.850;21.698;2022-09-20T12:55:35;6.70;;;4.60;;
50309;SDS011;36207;51.850;21.698;2022-09-20T12:58:18;5.20;;;4.20;;
50309;SDS011;36207;51.850;21.698;2022-09-20T13:03:27;5.70;;;4.80;;
50309;SDS011;36207;51.850;21.698;2022-09-20T13:11:33;5.50;;;4.50;;
50309;SDS011;36207;51.850;21.698;2022-09-20T13:19:03;5.70;;;4.10;;
50309;SDS011;36207;51.850;21.698;2022-09-20T13:21:52;5.10;;;4.30;;
50309;SDS011;36207;51.850;21.698;2022-09-20T13:27:01;6.30;;;4.10;;
50309;SDS011;36207;51.850;21.698;2022-09-20T13:29:34;7.50;;;4.90;;
50309;SDS011;36207;51.850;21.698;2022-09-20T13:32:23;9.90;;;4.90;;
50309;SDS011;36207;51.850;21.698;2022-09-20T13:40:20;5.80;;;4.40;;
50309;SDS011;36207;51.850;21.698;2022-09-20T13:43:02;7.20;;;4.90;;
50309;SDS011;36207;51.850;21.698;2022-09-20T13:45:31;7.00;;;4.80;;
50309;SDS011;36207;51.850;21.698;2022-09-20T13:47:59;6.00;;;4.50;;
50309;SDS011;36207;51.850;21.698;2022-09-20T13:50:30;6.60;;;4.90;;
50309;SDS011;36207;51.850;21.698;2022-09-20T13:53:00;7.50;;;4.90;;
50309;SDS011;36207;51.850;21.698;2022-09-20T13:55:32;7.50;;;5.20;;
50309;SDS011;36207;51.850;21.698;2022-09-20T13:58:01;6.30;;;5.20;;
50309;SDS011;36207;51.850;21.698;2022-09-20T14:00:32;6.10;;;4.80;;
50309;SDS011;36207;51.850;21.698;2022-09-20T14:03:01;6.50;;;5.10;;
50309;SDS011;36207;51.850;21.698;2022-09-20T14:05:29;6.30;;;5.10;;
50309;SDS011;36207;51.850;21.698;2022-09-20T14:07:56;6.80;;;5.20;;
50309;SDS011;36207;51.850;21.698;2022-09-20T14:10:33;6.60;;;4.70;;
50309;SDS011;36207;51.850;21.698;2022-09-20T14:13:05;5.50;;;4.30;;
50309;SDS011;36207;51.850;21.698;2022-09-20T14:15:35;5.80;;;4.30;;
50309;SDS011;36207;51.850;21.698;2022-09-20T14:18:04;6.00;;;4.40;;
50309;SDS011;36207;51.850;21.698;2022-09-20T14:20:34;5.50;;;3.90;;
50309;SDS011;36207;51.850;21.698;2022-09-20T14:23:00;5.20;;;4.30;;
50309;SDS011;36207;51.850;21.698;2022-09-20T14:25:27;7.40;;;4.40;;
50309;SDS011;36207;51.850;21.698;2022-09-20T14:30:44;7.80;;;4.60;;
50309;SDS011;36207;51.850;21.698;2022-09-20T14:33:14;8.30;;;4.60;;
50309;SDS011;36207;51.850;21.698;2022-09-20T14:35:49;7.70;;;4.60;;
50309;SDS011;36207;51.850;21.698;2022-09-20T14:38:17;6.40;;;4.80;;
50309;SDS011;36207;51.850;21.698;2022-09-20T14:40:49;7.00;;;4.70;;
50309;SDS011;36207;51.850;21.698;2022-09-20T14:43:21;7.80;;;4.90;;
50309;SDS011;36207;51.850;21.698;2022-09-20T14:49:19;5.50;;;4.60;;
50309;SDS011;36207;51.850;21.698;2022-09-20T14:57:34;6.50;;;4.90;;
50309;SDS011;36207;51.850;21.698;2022-09-20T15:00:04;6.50;;;4.80;;
50309;SDS011;36207;51.850;21.698;2022-09-20T15:02:35;6.40;;;4.80;;
50309;SDS011;36207;51.850;21.698;2022-09-20T15:05:02;6.30;;;4.70;;
50309;SDS011;36207;51.850;21.698;2022-09-20T15:07:28;6.90;;;4.90;;
50309;SDS011;36207;51.850;21.698;2022-09-20T15:09:55;6.30;;;4.60;;
50309;SDS011;36207;51.850;21.698;2022-09-20T15:12:21;9.10;;;4.90;;
50309;SDS011;36207;51.850;21.698;2022-09-20T15:14:47;6.90;;;5.10;;
50309;SDS011;36207;51.850;21.698;2022-09-20T15:17:15;8.00;;;5.40;;
50309;SDS011;36207;51.850;21.698;2022-09-20T15:19:46;7.10;;;4.90;;
50309;SDS011;36207;51.850;21.698;2022-09-20T15:22:14;6.20;;;4.80;;
50309;SDS011;36207;51.850;21.698;2022-09-20T15:24:40;7.30;;;5.50;;
50309;SDS011;36207;51.850;21.698;2022-09-20T15:27:08;8.20;;;5.60;;
50309;SDS011;36207;51.850;21.698;2022-09-20T15:29:36;8.70;;;5.20;;
50309;SDS011;36207;51.850;21.698;2022-09-20T15:32:02;8.20;;;5.50;;
50309;SDS011;36207;51.850;21.698;2022-09-20T15:34:30;9.30;;;5.60;;
50309;SDS011;36207;51.850;21.698;2022-09-20T15:36:57;6.50;;;4.80;;
50309;SDS011;36207;51.850;21.698;2022-09-20T15:39:23;8.50;;;4.90;;
50309;SDS011;36207;51.850;21.698;2022-09-20T15:41:51;8.30;;;5.40;;
50309;SDS011;36207;51.850;21.698;2022-09-20T15:44:17;8.20;;;5.20;;
50309;SDS011;36207;51.850;21.698;2022-09-20T15:46:44;8.60;;;5.50;;
50309;SDS011;36207;51.850;21.698;2022-09-20T15:49:11;10.60;;;5.40;;
50309;SDS011;36207;51.850;21.698;2022-09-20T15:51:37;9.40;;;5.60;;
50309;SDS011;36207;51.850;21.698;2022-09-20T15:54:04;7.90;;;5.20;;
50309;SDS011;36207;51.850;21.698;2022-09-20T15:56:33;8.20;;;5.30;;
50309;SDS011;36207;51.850;21.698;2022-09-20T15:59:08;8.90;;;5.20;;
50309;SDS011;36207;51.850;21.698;2022-09-20T16:01:37;7.80;;;5.20;;
50309;SDS011;36207;51.850;21.698;2022-09-20T16:04:05;7.70;;;5.20;;
50309;SDS011;36207;51.850;21.698;2022-09-20T16:06:37;6.80;;;5.20;;
50309;SDS011;36207;51.850;21.698;2022-09-20T16:09:05;8.80;;;5.10;;
50309;SDS011;36207;51.850;21.698;2022-09-20T16:11:32;9.40;;;5.30;;
50309;SDS011;36207;51.850;21.698;2022-09-20T16:13:59;10.90;;;6.00;;
50309;SDS011;36207;51.850;21.698;2022-09-20T16:16:27;8.30;;;5.70;;
50309;SDS011;36207;51.850;21.698;2022-09-20T16:18:54;10.60;;;7.10;;
50309;SDS011;36207;51.850;21.698;2022-09-20T16:21:40;14.70;;;7.80;;
50309;SDS011;36207;51.850;21.698;2022-09-20T16:24:08;10.90;;;7.90;;
50309;SDS011;36207;51.850;21.698;2022-09-20T16:26:37;10.40;;;7.40;;
50309;SDS011;36207;51.850;21.698;2022-09-20T16:29:04;10.50;;;7.20;;
50309;SDS011;36207;51.850;21.698;2022-09-20T16:31:35;9.10;;;6.10;;
50309;SDS011;36207;51.850;21.698;2022-09-20T16:34:05;8.00;;;5.40;;
50309;SDS011;36207;51.850;21.698;2022-09-20T16:36:38;7.20;;;4.60;;
50309;SDS011;36207;51.850;21.698;2022-09-20T16:39:06;7.50;;;4.40;;
50309;SDS011;36207;51.850;21.698;2022-09-20T16:41:33;7.60;;;4.50;;
50309;SDS011;36207;51.850;21.698;2022-09-20T16:43:59;7.80;;;4.70;;
50309;SDS011;36207;51.850;21.698;2022-09-20T16:46:25;7.60;;;4.50;;
50309;SDS011;36207;51.850;21.698;2022-09-20T16:48:54;7.60;;;4.70;;
50309;SDS011;36207;51.850;21.698;2022-09-20T16:51:24;7.90;;;4.60;;
50309;SDS011;36207;51.850;21.698;2022-09-20T16:53:54;7.10;;;4.40;;
50309;SDS011;36207;51.850;21.698;2022-09-20T16:56:21;7.70;;;4.90;;
50309;SDS011;36207;51.850;21.698;2022-09-20T16:58:49;7.20;;;4.60;;
50309;SDS011;36207;51.850;21.698;2022-09-20T17:01:16;7.10;;;4.70;;
50309;SDS011;36207;51.850;21.698;2022-09-20T17:03:43;8.40;;;5.00;;
50309;SDS011;36207;51.850;21.698;2022-09-20T17:06:10;9.30;;;5.10;;
50309;SDS011;36207;51.850;21.698;2022-09-20T17:08:39;8.40;;;5.90;;
50309;SDS011;36207;51.850;21.698;2022-09-20T17:11:07;9.90;;;6.80;;
50309;SDS011;36207;51.850;21.698;2022-09-20T17:13:35;11.30;;;7.30;;
50309;SDS011;36207;51.850;21.698;2022-09-20T17:16:07;9.70;;;6.40;;
50309;SDS011;36207;51.850;21.698;2022-09-20T17:18:35;11.10;;;6.90;;
50309;SDS011;36207;51.850;21.698;2022-09-20T17:21:08;8.90;;;6.00;;
50309;SDS011;36207;51.850;21.698;2022-09-20T17:23:42;8.60;;;6.10;;
50309;SDS011;36207;51.850;21.698;2022-09-20T17:26:20;8.30;;;5.80;;
50309;SDS011;36207;51.850;21.698;2022-09-20T17:28:52;10.00;;;5.50;;
50309;SDS011;36207;51.850;21.698;2022-09-20T17:31:24;7.30;;;4.80;;
50309;SDS011;36207;51.850;21.698;2022-09-20T17:33:58;8.00;;;4.90;;
50309;SDS011;36207;51.850;21.698;2022-09-20T17:36:27;7.80;;;5.10;;
50309;SDS011;36207;51.850;21.698;2022-09-20T17:38:58;9.60;;;5.80;;
50309;SDS011;36207;51.850;21.698;2022-09-20T17:41:26;8.50;;;5.80;;
50309;SDS011;36207;51.850;21.698;2022-09-20T17:43:54;7.90;;;5.40;;
50309;SDS011;36207;51.850;21.698;2022-09-20T17:46:27;8.90;;;5.90;;
50309;SDS011;36207;51.850;21.698;2022-09-20T17:48:56;18.50;;;9.70;;
50309;SDS011;36207;51.850;21.698;2022-09-20T17:51:26;17.00;;;10.90;;
50309;SDS011;36207;51.850;21.698;2022-09-20T17:53:54;13.90;;;9.00;;
50309;SDS011;36207;51.850;21.698;2022-09-20T17:56:21;15.60;;;8.30;;
50309;SDS011;36207;51.850;21.698;2022-09-20T17:58:53;15.00;;;8.90;;
50309;SDS011;36207;51.850;21.698;2022-09-20T18:01:21;17.10;;;10.70;;
50309;SDS011;36207;51.850;21.698;2022-09-20T18:03:48;17.40;;;10.90;;
50309;SDS011;36207;51.850;21.698;2022-09-20T18:08:46;14.70;;;9.30;;
50309;SDS011;36207;51.850;21.698;2022-09-20T18:11:15;13.80;;;8.70;;
50309;SDS011;36207;51.850;21.698;2022-09-20T18:13:46;11.80;;;8.10;;
50309;SDS011;36207;51.850;21.698;2022-09-20T18:16:14;11.90;;;8.00;;
50309;SDS011;36207;51.850;21.698;2022-09-20T18:18:43;12.10;;;7.80;;
50309;SDS011;36207;51.850;21.698;2022-09-20T18:21:32;13.60;;;7.80;;
50309;SDS011;36207;51.850;21.698;2022-09-20T18:24:01;10.10;;;6.60;;
50309;SDS011;36207;51.850;21.698;2022-09-20T18:26:32;9.80;;;6.40;;
50309;SDS011;36207;51.850;21.698;2022-09-20T18:29:05;10.70;;;6.40;;
50309;SDS011;36207;51.850;21.698;2022-09-20T18:31:40;9.20;;;6.20;;
50309;SDS011;36207;51.850;21.698;2022-09-20T18:34:29;8.60;;;5.90;;
50309;SDS011;36207;51.850;21.698;2022-09-20T18:36:59;10.80;;;6.60;;
50309;SDS011;36207;51.850;21.698;2022-09-20T18:39:30;11.60;;;6.70;;
50309;SDS011;36207;51.850;21.698;2022-09-20T18:41:57;11.10;;;6.60;;
50309;SDS011;36207;51.850;21.698;2022-09-20T18:44:26;9.50;;;6.30;;
50309;SDS011;36207;51.850;21.698;2022-09-20T18:46:55;9.30;;;5.70;;
50309;SDS011;36207;51.850;21.698;2022-09-20T18:49:22;9.90;;;5.90;;
50309;SDS011;36207;51.850;21.698;2022-09-20T18:51:51;12.40;;;6.20;;
50309;SDS011;36207;51.850;21.698;2022-09-20T18:54:17;10.30;;;6.50;;
50309;SDS011;36207;51.850;21.698;2022-09-20T18:56:45;9.50;;;6.40;;
50309;SDS011;36207;51.850;21.698;2022-09-20T18:59:15;10.50;;;7.00;;
50309;SDS011;36207;51.850;21.698;2022-09-20T19:12:32;10.40;;;7.30;;
50309;SDS011;36207;51.850;21.698;2022-09-20T19:23:35;12.90;;;7.50;;
50309;SDS011;36207;51.850;21.698;2022-09-20T19:26:29;12.10;;;7.70;;
50309;SDS011;36207;51.850;21.698;2022-09-20T19:29:03;11.10;;;7.90;;
50309;SDS011;36207;51.850;21.698;2022-09-20T19:31:41;11.50;;;7.80;;
50309;SDS011;36207;51.850;21.698;2022-09-20T19:34:18;11.90;;;7.50;;
50309;SDS011;36207;51.850;21.698;2022-09-20T19:43:20;13.70;;;7.90;;
50309;SDS011;36207;51.850;21.698;2022-09-20T19:48:58;12.40;;;8.10;;
50309;SDS011;36207;51.850;21.698;2022-09-20T19:51:36;12.80;;;8.50;;
50309;SDS011;36207;51.850;21.698;2022-09-20T19:54:03;11.70;;;7.80;;
50309;SDS011;36207;51.850;21.698;2022-09-20T19:56:35;13.10;;;8.00;;
50309;SDS011;36207;51.850;21.698;2022-09-20T19:59:26;12.90;;;8.50;;
50309;SDS011;36207;51.850;21.698;2022-09-20T20:01:53;11.70;;;7.90;;
50309;SDS011;36207;51.850;21.698;2022-09-20T20:04:20;12.10;;;8.00;;
50309;SDS011;36207;51.850;21.698;2022-09-20T20:09:49;13.00;;;7.80;;
50309;SDS011;36207;51.850;21.698;2022-09-20T20:12:40;11.00;;;7.90;;
50309;SDS011;36207;51.850;21.698;2022-09-20T20:15:38;11.40;;;8.00;;
50309;SDS011;36207;51.850;21.698;2022-09-20T20:20:50;11.70;;;7.70;;
50309;SDS011;36207;51.850;21.698;2022-09-20T20:26:04;11.60;;;8.00;;
50309;SDS011;36207;51.850;21.698;2022-09-20T20:28:45;12.00;;;7.70;;
50309;SDS011;36207;51.850;21.698;2022-09-20T20:31:12;13.60;;;7.70;;
50309;SDS011;36207;51.850;21.698;2022-09-20T20:33:39;11.90;;;7.60;;